createdAt,value
2017-04-23T00:00:29.019Z,1019.11
2017-04-23T00:01:09.556Z,1019.13
2017-04-23T00:01:50.094Z,1019.12
2017-04-23T00:02:30.633Z,1019.11
2017-04-23T00:03:11.166Z,1019.09
2017-04-23T00:03:51.695Z,1019.12
2017-04-23T00:04:32.224Z,1019.11
2017-04-23T00:05:12.759Z,1019.07
2017-04-23T00:05:53.295Z,1019.07
2017-04-23T00:06:33.818Z,1019.09
2017-04-23T00:07:14.347Z,1019.07
2017-04-23T00:07:54.896Z,1019.05
2017-04-23T00:08:35.425Z,1019.08
2017-04-23T00:09:15.964Z,1019
2017-04-23T00:09:56.501Z,1019.04
2017-04-23T00:10:37.025Z,1019.06
2017-04-23T00:11:17.565Z,1019.02
2017-04-23T00:11:58.087Z,1019.03
2017-04-23T00:12:38.626Z,1019.06
2017-04-23T00:13:19.155Z,1019.02
2017-04-23T00:13:59.701Z,1019.06
2017-04-23T00:14:40.246Z,1019.03
2017-04-23T00:15:20.776Z,1019.01
2017-04-23T00:16:01.353Z,1019.04
2017-04-23T00:16:41.875Z,1019.05
2017-04-23T00:17:22.392Z,1019.06
2017-04-23T00:18:02.919Z,1019.01
2017-04-23T00:18:43.450Z,1019.04
2017-04-23T00:19:23.977Z,1019.06
2017-04-23T00:20:04.504Z,1019.01
2017-04-23T00:20:45.027Z,1019
2017-04-23T00:21:25.569Z,1018.99
2017-04-23T00:22:06.114Z,1019.03
2017-04-23T00:22:46.637Z,1019.04
2017-04-23T00:23:27.184Z,1019.04
2017-04-23T00:24:07.713Z,1019.01
2017-04-23T00:24:48.264Z,1019.01
2017-04-23T00:25:28.784Z,1019.02
2017-04-23T00:26:09.317Z,1019
2017-04-23T00:26:49.845Z,1019.04
2017-04-23T00:27:30.397Z,1019.02
2017-04-23T00:28:10.902Z,1019
2017-04-23T00:28:51.435Z,1019.02
2017-04-23T00:29:31.964Z,1019.01
2017-04-23T00:30:12.487Z,1019.01
2017-04-23T00:30:53.013Z,1019.03
2017-04-23T00:31:33.541Z,1018.98
2017-04-23T00:32:14.076Z,1018.96
2017-04-23T00:32:54.619Z,1018.99
2017-04-23T00:33:35.133Z,1019.01
2017-04-23T00:34:15.669Z,1018.97
2017-04-23T00:34:56.202Z,1019
2017-04-23T00:35:36.741Z,1019.03
2017-04-23T00:36:17.270Z,1019.05
2017-04-23T00:36:57.809Z,1019
2017-04-23T00:37:38.335Z,1018.98
2017-04-23T00:38:18.876Z,1019.02
2017-04-23T00:38:59.421Z,1019.02
2017-04-23T00:39:39.954Z,1019.03
2017-04-23T00:40:20.494Z,1019
2017-04-23T00:41:01.026Z,1019.02
2017-04-23T00:41:41.566Z,1019.05
2017-04-23T00:42:22.087Z,1019
2017-04-23T00:43:02.619Z,1019.03
2017-04-23T00:43:43.146Z,1019.02
2017-04-23T00:44:23.725Z,1019.02
2017-04-23T00:45:04.254Z,1019.01
2017-04-23T00:45:44.781Z,1018.97
2017-04-23T00:46:25.322Z,1018.96
2017-04-23T00:47:05.879Z,1018.95
2017-04-23T00:47:46.399Z,1018.98
2017-04-23T00:48:26.929Z,1018.96
2017-04-23T00:49:07.493Z,1018.93
2017-04-23T00:49:48.015Z,1018.95
2017-04-23T00:50:28.558Z,1018.93
2017-04-23T00:51:09.091Z,1018.9
2017-04-23T00:51:49.627Z,1018.91
2017-04-23T00:52:30.150Z,1018.93
2017-04-23T00:53:10.671Z,1018.95
2017-04-23T00:53:51.196Z,1018.91
2017-04-23T00:54:31.731Z,1018.86
2017-04-23T00:55:12.271Z,1018.92
2017-04-23T00:55:52.804Z,1018.92
2017-04-23T00:56:33.333Z,1018.89
2017-04-23T00:57:13.861Z,1018.9
2017-04-23T00:57:54.398Z,1018.88
2017-04-23T00:58:34.931Z,1018.87
2017-04-23T00:59:15.458Z,1018.9
2017-04-23T00:59:55.974Z,1018.91
2017-04-23T01:00:36.506Z,1018.87
2017-04-23T01:01:17.032Z,1018.85
2017-04-23T01:01:57.554Z,1018.86
2017-04-23T01:02:38.074Z,1018.88
2017-04-23T01:03:18.606Z,1018.9
2017-04-23T01:03:59.139Z,1018.86
2017-04-23T01:04:39.658Z,1018.9
2017-04-23T01:05:20.182Z,1018.88
2017-04-23T01:06:00.709Z,1018.89
2017-04-23T01:06:41.242Z,1018.88
2017-04-23T01:07:21.771Z,1018.91
2017-04-23T01:08:02.292Z,1018.88
2017-04-23T01:08:42.825Z,1018.9
2017-04-23T01:09:23.353Z,1018.87
2017-04-23T01:10:03.884Z,1018.85
2017-04-23T01:10:44.423Z,1018.88
2017-04-23T01:11:24.961Z,1018.87
2017-04-23T01:12:05.480Z,1018.87
2017-04-23T01:12:46.004Z,1018.88
2017-04-23T01:13:26.535Z,1018.89
2017-04-23T01:14:07.062Z,1018.88
2017-04-23T01:14:47.602Z,1018.86
2017-04-23T01:15:28.138Z,1018.87
2017-04-23T01:16:08.671Z,1018.87
2017-04-23T01:16:49.205Z,1018.87
2017-04-23T01:17:29.738Z,1018.86
2017-04-23T01:18:10.264Z,1018.87
2017-04-23T01:18:50.794Z,1018.86
2017-04-23T01:19:31.320Z,1018.87
2017-04-23T01:20:11.845Z,1018.86
2017-04-23T01:20:52.373Z,1018.88
2017-04-23T01:21:32.898Z,1018.89
2017-04-23T01:22:13.431Z,1018.89
2017-04-23T01:22:53.966Z,1018.91
2017-04-23T01:23:34.497Z,1018.88
2017-04-23T01:24:15.020Z,1018.87
2017-04-23T01:24:55.564Z,1018.91
2017-04-23T01:25:36.095Z,1018.87
2017-04-23T01:26:16.624Z,1018.9
2017-04-23T01:26:57.147Z,1018.87
2017-04-23T01:27:37.667Z,1018.91
2017-04-23T01:28:18.215Z,1018.9
2017-04-23T01:28:58.748Z,1018.88
2017-04-23T01:29:39.277Z,1018.93
2017-04-23T01:30:19.818Z,1018.89
2017-04-23T01:31:00.354Z,1018.92
2017-04-23T01:31:40.890Z,1018.87
2017-04-23T01:32:21.421Z,1018.87
2017-04-23T01:33:01.962Z,1018.86
2017-04-23T01:33:42.480Z,1018.85
2017-04-23T01:34:23.021Z,1018.91
2017-04-23T01:35:03.548Z,1018.86
2017-04-23T01:35:44.076Z,1018.86
2017-04-23T01:36:24.597Z,1018.86
2017-04-23T01:37:05.130Z,1018.86
2017-04-23T01:37:45.664Z,1018.84
2017-04-23T01:38:26.206Z,1018.85
2017-04-23T01:39:06.731Z,1018.83
2017-04-23T01:39:47.271Z,1018.87
2017-04-23T01:40:27.796Z,1018.89
2017-04-23T01:41:08.342Z,1018.87
2017-04-23T01:41:48.892Z,1018.83
2017-04-23T01:42:29.423Z,1018.85
2017-04-23T01:43:09.970Z,1018.84
2017-04-23T01:43:50.498Z,1018.86
2017-04-23T01:44:31.085Z,1018.87
2017-04-23T01:45:11.611Z,1018.87
2017-04-23T01:45:52.130Z,1018.85
2017-04-23T01:46:32.675Z,1018.89
2017-04-23T01:47:13.226Z,1018.85
2017-04-23T01:47:53.754Z,1018.86
2017-04-23T01:48:34.288Z,1018.85
2017-04-23T01:49:14.827Z,1018.84
2017-04-23T01:49:55.364Z,1018.83
2017-04-23T01:50:35.886Z,1018.82
2017-04-23T01:51:16.428Z,1018.8
2017-04-23T01:51:56.957Z,1018.82
2017-04-23T01:52:37.490Z,1018.81
2017-04-23T01:53:18.039Z,1018.84
2017-04-23T01:53:58.564Z,1018.85
2017-04-23T01:54:39.088Z,1018.81
2017-04-23T01:55:19.612Z,1018.84
2017-04-23T01:56:00.155Z,1018.84
2017-04-23T01:56:40.679Z,1018.83
2017-04-23T01:57:21.213Z,1018.81
2017-04-23T01:58:01.756Z,1018.84
2017-04-23T01:58:42.298Z,1018.86
2017-04-23T01:59:22.823Z,1018.83
2017-04-23T02:00:03.342Z,1018.83
2017-04-23T02:00:43.887Z,1018.82
2017-04-23T02:01:24.418Z,1018.82
2017-04-23T02:02:04.943Z,1018.82
2017-04-23T02:02:45.464Z,1018.79
2017-04-23T02:03:25.991Z,1018.78
2017-04-23T02:04:06.529Z,1018.87
2017-04-23T02:04:47.043Z,1018.87
2017-04-23T02:05:27.586Z,1018.85
2017-04-23T02:06:08.123Z,1018.85
2017-04-23T02:06:48.652Z,1018.83
2017-04-23T02:07:29.190Z,1018.83
2017-04-23T02:08:09.724Z,1018.84
2017-04-23T02:08:50.250Z,1018.8
2017-04-23T02:09:30.784Z,1018.85
2017-04-23T02:10:11.320Z,1018.84
2017-04-23T02:10:51.854Z,1018.84
2017-04-23T02:11:32.392Z,1018.82
2017-04-23T02:12:12.928Z,1018.86
2017-04-23T02:12:53.455Z,1018.83
2017-04-23T02:13:33.978Z,1018.85
2017-04-23T02:14:14.505Z,1018.86
2017-04-23T02:14:55.033Z,1018.86
2017-04-23T02:15:35.570Z,1018.87
2017-04-23T02:16:16.093Z,1018.88
2017-04-23T02:16:56.646Z,1018.84
2017-04-23T02:17:37.181Z,1018.85
2017-04-23T02:18:17.708Z,1018.87
2017-04-23T02:18:58.236Z,1018.87
2017-04-23T02:19:38.755Z,1018.89
2017-04-23T02:20:19.282Z,1018.91
2017-04-23T02:20:59.808Z,1018.91
2017-04-23T02:21:40.358Z,1018.89
2017-04-23T02:22:20.890Z,1018.9
2017-04-23T02:23:01.437Z,1018.9
2017-04-23T02:23:41.977Z,1018.94
2017-04-23T02:24:22.503Z,1018.93
2017-04-23T02:25:03.038Z,1018.93
2017-04-23T02:25:43.565Z,1018.95
2017-04-23T02:26:24.082Z,1018.95
2017-04-23T02:27:04.611Z,1018.93
2017-04-23T02:27:45.147Z,1018.94
2017-04-23T02:28:25.682Z,1018.96
2017-04-23T02:29:06.212Z,1018.93
2017-04-23T02:29:46.747Z,1018.89
2017-04-23T02:30:27.291Z,1018.94
2017-04-23T02:31:07.836Z,1018.87
2017-04-23T02:31:48.359Z,1018.91
2017-04-23T02:32:28.883Z,1018.89
2017-04-23T02:33:09.422Z,1018.92
2017-04-23T02:33:49.969Z,1018.91
2017-04-23T02:34:30.508Z,1018.88
2017-04-23T02:35:11.051Z,1018.93
2017-04-23T02:35:51.591Z,1018.88
2017-04-23T02:36:32.139Z,1018.91
2017-04-23T02:37:12.675Z,1018.89
2017-04-23T02:37:53.213Z,1018.89
2017-04-23T02:38:33.731Z,1018.93
2017-04-23T02:39:14.276Z,1018.94
2017-04-23T02:39:54.826Z,1018.94
2017-04-23T02:40:35.351Z,1018.96
2017-04-23T02:41:15.897Z,1018.94
2017-04-23T02:41:56.420Z,1018.96
2017-04-23T02:42:36.942Z,1018.95
2017-04-23T02:43:17.479Z,1018.98
2017-04-23T02:43:58.018Z,1018.99
2017-04-23T02:44:38.561Z,1018.98
2017-04-23T02:45:19.098Z,1018.96
2017-04-23T02:45:59.635Z,1018.95
2017-04-23T02:46:40.173Z,1018.96
2017-04-23T02:47:20.696Z,1018.93
2017-04-23T02:48:01.234Z,1018.94
2017-04-23T02:48:41.772Z,1018.93
2017-04-23T02:49:22.279Z,1018.92
2017-04-23T02:50:02.913Z,1018.95
2017-04-23T02:50:43.440Z,1018.95
2017-04-23T02:51:23.987Z,1018.97
2017-04-23T02:52:04.517Z,1018.98
2017-04-23T02:52:45.066Z,1018.98
2017-04-23T02:53:25.581Z,1018.99
2017-04-23T02:54:06.118Z,1018.98
2017-04-23T02:54:46.638Z,1019
2017-04-23T02:55:27.189Z,1018.98
2017-04-23T02:56:07.707Z,1018.98
2017-04-23T02:56:48.235Z,1019.01
2017-04-23T02:57:28.754Z,1019
2017-04-23T02:58:09.295Z,1018.99
2017-04-23T02:58:49.832Z,1018.98
2017-04-23T02:59:30.370Z,1018.96
2017-04-23T03:00:10.950Z,1019.01
2017-04-23T03:00:51.494Z,1018.98
2017-04-23T03:01:32.032Z,1018.98
2017-04-23T03:02:12.570Z,1018.98
2017-04-23T03:02:53.098Z,1018.99
2017-04-23T03:03:33.631Z,1019
2017-04-23T03:04:14.157Z,1019.01
2017-04-23T03:04:54.697Z,1019.03
2017-04-23T03:05:35.236Z,1019
2017-04-23T03:06:15.768Z,1019
2017-04-23T03:06:56.293Z,1018.97
2017-04-23T03:07:36.842Z,1018.96
2017-04-23T03:08:17.389Z,1018.98
2017-04-23T03:08:57.939Z,1018.98
2017-04-23T03:09:38.447Z,1018.94
2017-04-23T03:10:18.977Z,1018.97
2017-04-23T03:10:59.501Z,1019
2017-04-23T03:11:40.049Z,1018.98
2017-04-23T03:12:20.575Z,1018.96
2017-04-23T03:13:01.104Z,1018.92
2017-04-23T03:13:41.637Z,1018.95
2017-04-23T03:14:22.175Z,1018.96
2017-04-23T03:15:02.697Z,1018.97
2017-04-23T03:15:43.220Z,1018.98
2017-04-23T03:16:23.757Z,1018.94
2017-04-23T03:17:04.303Z,1018.98
2017-04-23T03:17:44.835Z,1019
2017-04-23T03:18:25.370Z,1018.97
2017-04-23T03:19:05.914Z,1018.96
2017-04-23T03:19:46.450Z,1018.98
2017-04-23T03:20:26.988Z,1018.96
2017-04-23T03:21:07.537Z,1018.98
2017-04-23T03:21:48.056Z,1018.98
2017-04-23T03:22:28.594Z,1018.99
2017-04-23T03:23:09.131Z,1018.97
2017-04-23T03:23:49.652Z,1018.96
2017-04-23T03:24:30.176Z,1018.98
2017-04-23T03:25:10.708Z,1018.97
2017-04-23T03:25:51.239Z,1018.99
2017-04-23T03:26:31.788Z,1019
2017-04-23T03:27:12.334Z,1018.99
2017-04-23T03:27:52.856Z,1019.07
2017-04-23T03:28:33.395Z,1019.04
2017-04-23T03:29:13.913Z,1019.05
2017-04-23T03:29:54.438Z,1019.05
2017-04-23T03:30:35.002Z,1019.07
2017-04-23T03:31:15.536Z,1019.07
2017-04-23T03:31:56.056Z,1019.1
2017-04-23T03:32:36.577Z,1019.08
2017-04-23T03:33:17.117Z,1019.08
2017-04-23T03:33:57.659Z,1019.07
2017-04-23T03:34:38.192Z,1019.08
2017-04-23T03:35:18.738Z,1019.04
2017-04-23T03:35:59.260Z,1019.1
2017-04-23T03:36:39.800Z,1019.06
2017-04-23T03:37:20.344Z,1019.08
2017-04-23T03:38:00.883Z,1019.11
2017-04-23T03:38:41.419Z,1019.1
2017-04-23T03:39:21.967Z,1019.1
2017-04-23T03:40:02.512Z,1019.11
2017-04-23T03:40:43.059Z,1019.11
2017-04-23T03:41:23.592Z,1019.12
2017-04-23T03:42:04.121Z,1019.13
2017-04-23T03:42:44.656Z,1019.12
2017-04-23T03:43:25.191Z,1019.08
2017-04-23T03:44:05.719Z,1019.1
2017-04-23T03:44:46.256Z,1019.11
2017-04-23T03:45:26.793Z,1019.11
2017-04-23T03:46:07.327Z,1019.15
2017-04-23T03:46:47.851Z,1019.17
2017-04-23T03:47:28.376Z,1019.15
2017-04-23T03:48:08.897Z,1019.17
2017-04-23T03:48:49.430Z,1019.2
2017-04-23T03:49:29.952Z,1019.18
2017-04-23T03:50:10.493Z,1019.18
2017-04-23T03:50:51.028Z,1019.16
2017-04-23T03:51:31.554Z,1019.17
2017-04-23T03:52:12.101Z,1019.2
2017-04-23T03:52:52.646Z,1019.23
2017-04-23T03:53:33.173Z,1019.22
2017-04-23T03:54:13.704Z,1019.2
2017-04-23T03:54:54.280Z,1019.23
2017-04-23T03:55:34.849Z,1019.25
2017-04-23T03:56:15.428Z,1019.27
2017-04-23T03:56:55.981Z,1019.29
2017-04-23T03:57:36.567Z,1019.25
2017-04-23T03:58:17.134Z,1019.24
2017-04-23T03:58:57.744Z,1019.27
2017-04-23T03:59:38.274Z,1019.25
2017-04-23T04:00:18.828Z,1019.27
2017-04-23T04:00:59.377Z,1019.3
2017-04-23T04:01:39.921Z,1019.26
2017-04-23T04:02:20.592Z,1019.24
2017-04-23T04:03:01.135Z,1019.29
2017-04-23T04:03:41.691Z,1019.28
2017-04-23T04:04:22.255Z,1019.27
2017-04-23T04:05:02.846Z,1019.26
2017-04-23T04:05:43.339Z,1019.25
2017-04-23T04:06:24.091Z,1019.22
2017-04-23T04:07:04.624Z,1019.22
2017-04-23T04:07:45.182Z,1019.26
2017-04-23T04:08:25.728Z,1019.22
2017-04-23T04:09:06.258Z,1019.23
2017-04-23T04:09:46.835Z,1019.2
2017-04-23T04:10:27.384Z,1019.2
2017-04-23T04:11:07.928Z,1019.21
2017-04-23T04:11:48.504Z,1019.19
2017-04-23T04:12:29.015Z,1019.21
2017-04-23T04:13:09.563Z,1019.21
2017-04-23T04:13:50.147Z,1019.17
2017-04-23T04:14:30.662Z,1019.2
2017-04-23T04:15:11.224Z,1019.21
2017-04-23T04:15:51.760Z,1019.21
2017-04-23T04:16:32.254Z,1019.2
2017-04-23T04:17:12.798Z,1019.2
2017-04-23T04:17:53.397Z,1019.19
2017-04-23T04:18:33.934Z,1019.26
2017-04-23T04:19:14.503Z,1019.22
2017-04-23T04:19:55.016Z,1019.21
2017-04-23T04:20:35.577Z,1019.24
2017-04-23T04:21:16.153Z,1019.27
2017-04-23T04:21:56.648Z,1019.24
2017-04-23T04:22:37.234Z,1019.24
2017-04-23T04:23:17.794Z,1019.23
2017-04-23T04:23:59.316Z,1019.23
2017-04-23T04:24:39.887Z,1019.27
2017-04-23T04:25:20.433Z,1019.21
2017-04-23T04:26:01.020Z,1019.22
2017-04-23T04:26:41.622Z,1019.24
2017-04-23T04:27:22.240Z,1019.23
2017-04-23T04:28:02.880Z,1019.21
2017-04-23T04:28:43.392Z,1019.25
2017-04-23T04:29:23.920Z,1019.33
2017-04-23T04:30:04.460Z,1019.26
2017-04-23T04:30:45.018Z,1019.29
2017-04-23T04:31:25.526Z,1019.29
2017-04-23T04:32:06.047Z,1019.27
2017-04-23T04:32:46.597Z,1019.28
2017-04-23T04:33:27.173Z,1019.28
2017-04-23T04:34:07.711Z,1019.31
2017-04-23T04:34:48.278Z,1019.3
2017-04-23T04:35:28.851Z,1019.27
2017-04-23T04:36:09.647Z,1019.27
2017-04-23T04:36:50.202Z,1019.32
2017-04-23T04:37:31.074Z,1019.33
2017-04-23T04:38:11.615Z,1019.29
2017-04-23T04:38:52.214Z,1019.28
2017-04-23T04:39:32.768Z,1019.3
2017-04-23T04:40:13.296Z,1019.28
2017-04-23T04:40:53.827Z,1019.33
2017-04-23T04:41:34.378Z,1019.34
2017-04-23T04:42:14.920Z,1019.31
2017-04-23T04:42:55.511Z,1019.33
2017-04-23T04:43:36.037Z,1019.32
2017-04-23T04:44:16.627Z,1019.39
2017-04-23T04:44:57.153Z,1019.36
2017-04-23T04:45:37.703Z,1019.37
2017-04-23T04:46:18.329Z,1019.36
2017-04-23T04:46:58.898Z,1019.38
2017-04-23T04:47:39.515Z,1019.4
2017-04-23T04:48:20.122Z,1019.39
2017-04-23T04:49:00.694Z,1019.35
2017-04-23T04:49:41.216Z,1019.36
2017-04-23T04:50:21.789Z,1019.34
2017-04-23T04:51:02.361Z,1019.34
2017-04-23T04:51:42.942Z,1019.38
2017-04-23T04:52:23.540Z,1019.35
2017-04-23T04:53:04.173Z,1019.37
2017-04-23T04:53:44.654Z,1019.35
2017-04-23T04:54:25.232Z,1019.35
2017-04-23T04:55:05.759Z,1019.34
2017-04-23T04:55:46.369Z,1019.38
2017-04-23T04:56:26.888Z,1019.34
2017-04-23T04:57:07.438Z,1019.33
2017-04-23T04:57:48.075Z,1019.32
2017-04-23T04:58:28.659Z,1019.39
2017-04-23T04:59:09.224Z,1019.36
2017-04-23T04:59:49.790Z,1019.35
2017-04-23T05:00:30.342Z,1019.37
2017-04-23T05:01:10.926Z,1019.4
2017-04-23T05:01:51.499Z,1019.37
2017-04-23T05:02:32.054Z,1019.37
2017-04-23T05:03:12.849Z,1019.37
2017-04-23T05:03:53.483Z,1019.38
2017-04-23T05:04:34.020Z,1019.36
2017-04-23T05:05:14.576Z,1019.4
2017-04-23T05:05:55.150Z,1019.4
2017-04-23T05:06:35.738Z,1019.43
2017-04-23T05:07:16.308Z,1019.42
2017-04-23T05:07:56.898Z,1019.45
2017-04-23T05:08:37.411Z,1019.43
2017-04-23T05:09:17.971Z,1019.44
2017-04-23T05:09:58.537Z,1019.42
2017-04-23T05:10:39.075Z,1019.44
2017-04-23T05:11:19.708Z,1019.42
2017-04-23T05:12:00.287Z,1019.43
2017-04-23T05:12:40.842Z,1019.44
2017-04-23T05:13:21.439Z,1019.44
2017-04-23T05:14:01.969Z,1019.43
2017-04-23T05:14:42.536Z,1019.47
2017-04-23T05:15:23.082Z,1019.46
2017-04-23T05:16:03.623Z,1019.45
2017-04-23T05:16:44.172Z,1019.42
2017-04-23T05:17:24.769Z,1019.44
2017-04-23T05:18:05.337Z,1019.43
2017-04-23T05:18:45.893Z,1019.5
2017-04-23T05:19:26.466Z,1019.47
2017-04-23T05:20:07.038Z,1019.52
2017-04-23T05:20:47.608Z,1019.52
2017-04-23T05:21:28.221Z,1019.54
2017-04-23T05:22:08.781Z,1019.54
2017-04-23T05:22:49.351Z,1019.59
2017-04-23T05:23:29.891Z,1019.61
2017-04-23T05:24:10.438Z,1019.58
2017-04-23T05:24:51.009Z,1019.6
2017-04-23T05:25:31.584Z,1019.64
2017-04-23T05:26:12.162Z,1019.63
2017-04-23T05:26:52.720Z,1019.62
2017-04-23T05:27:33.310Z,1019.65
2017-04-23T05:28:13.875Z,1019.67
2017-04-23T05:28:54.402Z,1019.65
2017-04-23T05:29:35.003Z,1019.62
2017-04-23T05:30:15.592Z,1019.61
2017-04-23T05:30:56.167Z,1019.65
2017-04-23T05:31:36.741Z,1019.62
2017-04-23T05:32:17.317Z,1019.62
2017-04-23T05:32:57.901Z,1019.67
2017-04-23T05:33:38.445Z,1019.7
2017-04-23T05:34:18.991Z,1019.69
2017-04-23T05:34:59.535Z,1019.74
2017-04-23T05:35:40.108Z,1019.71
2017-04-23T05:36:20.621Z,1019.7
2017-04-23T05:37:01.209Z,1019.76
2017-04-23T05:37:41.697Z,1019.74
2017-04-23T05:38:22.265Z,1019.77
2017-04-23T05:39:02.842Z,1019.75
2017-04-23T05:39:43.409Z,1019.79
2017-04-23T05:40:23.987Z,1019.81
2017-04-23T05:41:04.554Z,1019.79
2017-04-23T05:41:45.062Z,1019.77
2017-04-23T05:42:25.668Z,1019.8
2017-04-23T05:43:06.172Z,1019.8
2017-04-23T05:43:46.765Z,1019.83
2017-04-23T05:44:27.263Z,1019.8
2017-04-23T05:46:56.876Z,1019.79
2017-04-23T05:47:37.402Z,1019.82
2017-04-23T05:48:17.959Z,1019.79
2017-04-23T05:48:58.514Z,1019.77
2017-04-23T05:49:39.084Z,1019.8
2017-04-23T05:50:19.600Z,1019.83
2017-04-23T05:51:00.189Z,1019.81
2017-04-23T05:51:41.536Z,1019.82
2017-04-23T05:52:23.112Z,1019.88
2017-04-23T05:53:04.341Z,1019.88
2017-04-23T05:53:44.917Z,1019.86
2017-04-23T05:54:25.467Z,1019.91
2017-04-23T05:55:06.058Z,1019.91
2017-04-23T05:55:46.722Z,1019.9
2017-04-23T05:56:27.321Z,1019.89
2017-04-23T05:57:07.869Z,1019.91
2017-04-23T05:57:48.455Z,1019.91
2017-04-23T05:58:29.049Z,1019.92
2017-04-23T05:59:09.621Z,1019.94
2017-04-23T05:59:50.214Z,1019.96
2017-04-23T06:00:30.804Z,1019.93
2017-04-23T06:01:11.389Z,1019.93
2017-04-23T06:01:51.959Z,1019.94
2017-04-23T06:02:32.522Z,1019.95
2017-04-23T06:03:13.133Z,1019.94
2017-04-23T06:03:53.745Z,1019.99
2017-04-23T06:04:34.315Z,1019.96
2017-04-23T06:05:14.907Z,1020
2017-04-23T06:05:55.498Z,1019.98
2017-04-23T06:06:36.022Z,1020.01
2017-04-23T06:07:16.600Z,1020.01
2017-04-23T06:07:57.189Z,1019.96
2017-04-23T06:08:37.718Z,1019.97
2017-04-23T06:09:18.236Z,1020.04
2017-04-23T06:09:58.810Z,1020.04
2017-04-23T06:10:39.372Z,1020.04
2017-04-23T06:11:19.938Z,1020.01
2017-04-23T06:12:00.493Z,1020
2017-04-23T06:12:41.049Z,1020.02
2017-04-23T06:13:21.613Z,1019.99
2017-04-23T06:14:02.171Z,1019.98
2017-04-23T06:14:42.744Z,1020.01
2017-04-23T06:15:23.343Z,1020.02
2017-04-23T06:16:03.918Z,1019.98
2017-04-23T06:16:44.485Z,1019.97
2017-04-23T06:17:25.069Z,1019.99
2017-04-23T06:18:05.661Z,1019.95
2017-04-23T06:18:46.234Z,1020.01
2017-04-23T06:19:26.865Z,1020.01
2017-04-23T06:20:07.473Z,1020.01
2017-04-23T06:20:48.079Z,1020.02
2017-04-23T06:21:28.647Z,1020.03
2017-04-23T06:22:09.233Z,1020.02
2017-04-23T06:22:49.826Z,1020.06
2017-04-23T06:23:30.398Z,1020.07
2017-04-23T06:24:10.961Z,1020.06
2017-04-23T06:24:51.524Z,1020.05
2017-04-23T06:25:32.072Z,1020.07
2017-04-23T06:26:12.634Z,1020.08
2017-04-23T06:26:53.234Z,1020.1
2017-04-23T06:27:33.807Z,1020.05
2017-04-23T06:28:14.376Z,1020.08
2017-04-23T06:28:54.933Z,1020.1
2017-04-23T06:29:35.499Z,1020.09
2017-04-23T06:30:16.057Z,1020.1
2017-04-23T06:30:56.585Z,1020.09
2017-04-23T06:31:37.123Z,1020.11
2017-04-23T06:32:18.053Z,1020.13
2017-04-23T06:32:58.906Z,1020.07
2017-04-23T06:33:39.395Z,1020.11
2017-04-23T06:34:19.969Z,1020.11
2017-04-23T06:35:00.519Z,1020.11
2017-04-23T06:35:41.057Z,1020.11
2017-04-23T06:36:21.607Z,1020.07
2017-04-23T06:37:02.236Z,1020.12
2017-04-23T06:37:42.793Z,1020.12
2017-04-23T06:38:23.381Z,1020.09
2017-04-23T06:39:03.982Z,1020.09
2017-04-23T06:39:45.028Z,1020.1
2017-04-23T06:40:25.563Z,1020.11
2017-04-23T06:41:06.146Z,1020.1
2017-04-23T06:41:46.669Z,1020.11
2017-04-23T06:42:27.240Z,1020.14
2017-04-23T06:43:07.799Z,1020.15
2017-04-23T06:43:48.375Z,1020.16
2017-04-23T06:44:28.950Z,1020.13
2017-04-23T06:45:09.478Z,1020.15
2017-04-23T06:45:50.020Z,1020.14
2017-04-23T06:46:30.598Z,1020.14
2017-04-23T06:47:11.178Z,1020.17
2017-04-23T06:47:51.789Z,1020.14
2017-04-23T06:48:32.335Z,1020.15
2017-04-23T06:49:12.857Z,1020.15
2017-04-23T06:49:53.412Z,1020.16
2017-04-23T06:50:34.525Z,1020.16
2017-04-23T06:51:15.116Z,1020.18
2017-04-23T06:51:55.822Z,1020.16
2017-04-23T06:52:36.327Z,1020.19
2017-04-23T06:53:16.877Z,1020.2
2017-04-23T06:53:57.433Z,1020.19
2017-04-23T06:54:38.015Z,1020.22
2017-04-23T06:55:18.575Z,1020.21
2017-04-23T06:55:59.153Z,1020.19
2017-04-23T06:56:39.721Z,1020.22
2017-04-23T06:57:20.215Z,1020.19
2017-04-23T06:58:00.758Z,1020.21
2017-04-23T06:58:41.308Z,1020.19
2017-04-23T06:59:21.849Z,1020.18
2017-04-23T07:00:02.452Z,1020.19
2017-04-23T07:00:43.011Z,1020.15
2017-04-23T07:01:23.508Z,1020.15
2017-04-23T07:02:04.066Z,1020.17
2017-04-23T07:02:44.582Z,1020.15
2017-04-23T07:03:25.149Z,1020.14
2017-04-23T07:04:05.776Z,1020.17
2017-04-23T07:04:46.341Z,1020.18
2017-04-23T07:05:26.911Z,1020.16
2017-04-23T07:06:07.528Z,1020.21
2017-04-23T07:06:48.090Z,1020.21
2017-04-23T07:07:28.689Z,1020.21
2017-04-23T07:08:09.292Z,1020.17
2017-04-23T07:08:49.884Z,1020.16
2017-04-23T07:09:30.442Z,1020.2
2017-04-23T07:10:11.070Z,1020.2
2017-04-23T07:10:51.603Z,1020.2
2017-04-23T07:11:32.159Z,1020.15
2017-04-23T07:12:12.710Z,1020.19
2017-04-23T07:12:53.250Z,1020.17
2017-04-23T07:13:33.798Z,1020.2
2017-04-23T07:14:14.368Z,1020.2
2017-04-23T07:14:54.876Z,1020.19
2017-04-23T07:15:35.475Z,1020.19
2017-04-23T07:16:16.286Z,1020.19
2017-04-23T07:16:57.152Z,1020.15
2017-04-23T07:17:37.788Z,1020.14
2017-04-23T07:18:18.319Z,1020.17
2017-04-23T07:18:58.960Z,1020.19
2017-04-23T07:19:39.583Z,1020.15
2017-04-23T07:20:20.267Z,1020.19
2017-04-23T07:21:00.875Z,1020.18
2017-04-23T07:21:41.479Z,1020.22
2017-04-23T07:22:22.126Z,1020.21
2017-04-23T07:23:02.841Z,1020.21
2017-04-23T07:23:43.366Z,1020.18
2017-04-23T07:24:23.938Z,1020.22
2017-04-23T07:25:04.522Z,1020.24
2017-04-23T07:25:45.071Z,1020.22
2017-04-23T07:26:25.612Z,1020.27
2017-04-23T07:27:06.236Z,1020.25
2017-04-23T07:27:46.935Z,1020.27
2017-04-23T07:28:27.582Z,1020.22
2017-04-23T07:29:08.189Z,1020.23
2017-04-23T07:29:48.847Z,1020.28
2017-04-23T07:30:29.455Z,1020.23
2017-04-23T07:31:10.095Z,1020.26
2017-04-23T07:31:50.653Z,1020.3
2017-04-23T07:32:31.281Z,1020.24
2017-04-23T07:33:11.936Z,1020.22
2017-04-23T07:33:52.783Z,1020.25
2017-04-23T07:34:33.313Z,1020.29
2017-04-23T07:35:13.882Z,1020.25
2017-04-23T07:35:54.543Z,1020.26
2017-04-23T07:36:35.032Z,1020.23
2017-04-23T07:37:15.638Z,1020.21
2017-04-23T07:37:56.194Z,1020.24
2017-04-23T07:38:36.781Z,1020.25
2017-04-23T07:39:17.423Z,1020.22
2017-04-23T07:39:58.128Z,1020.22
2017-04-23T07:40:38.720Z,1020.2
2017-04-23T07:41:19.373Z,1020.23
2017-04-23T07:41:59.962Z,1020.26
2017-04-23T07:42:40.573Z,1020.29
2017-04-23T07:43:21.204Z,1020.29
2017-04-23T07:44:01.836Z,1020.34
2017-04-23T07:44:42.555Z,1020.32
2017-04-23T07:45:23.354Z,1020.28
2017-04-23T07:46:04.068Z,1020.26
2017-04-23T07:46:44.819Z,1020.32
2017-04-23T07:47:25.438Z,1020.28
2017-04-23T07:48:06.065Z,1020.27
2017-04-23T07:48:46.662Z,1020.3
2017-04-23T07:49:27.258Z,1020.25
2017-04-23T07:50:07.767Z,1020.27
2017-04-23T07:50:48.387Z,1020.32
2017-04-23T07:51:28.973Z,1020.31
2017-04-23T07:52:09.461Z,1020.34
2017-04-23T07:52:50.069Z,1020.3
2017-04-23T07:53:30.646Z,1020.32
2017-04-23T07:54:11.227Z,1020.28
2017-04-23T07:54:51.930Z,1020.29
2017-04-23T07:55:32.524Z,1020.3
2017-04-23T07:56:13.024Z,1020.26
2017-04-23T07:56:53.641Z,1020.3
2017-04-23T07:57:34.209Z,1020.27
2017-04-23T07:58:14.761Z,1020.32
2017-04-23T07:58:55.303Z,1020.3
2017-04-23T07:59:35.893Z,1020.28
2017-04-23T08:00:16.460Z,1020.27
2017-04-23T08:00:57.043Z,1020.26
2017-04-23T08:01:37.603Z,1020.25
2017-04-23T08:02:18.155Z,1020.28
2017-04-23T08:02:58.720Z,1020.28
2017-04-23T08:03:39.325Z,1020.25
2017-04-23T08:04:19.933Z,1020.28
2017-04-23T08:05:00.561Z,1020.23
2017-04-23T08:05:41.159Z,1020.27
2017-04-23T08:06:22.120Z,1020.27
2017-04-23T08:07:02.781Z,1020.28
2017-04-23T08:07:43.416Z,1020.29
2017-04-23T08:08:24.038Z,1020.28
2017-04-23T08:09:04.566Z,1020.3
2017-04-23T08:09:45.146Z,1020.3
2017-04-23T08:10:25.731Z,1020.31
2017-04-23T08:11:06.297Z,1020.26
2017-04-23T08:11:46.899Z,1020.28
2017-04-23T08:12:27.458Z,1020.29
2017-04-23T08:13:08.016Z,1020.26
2017-04-23T08:13:48.575Z,1020.26
2017-04-23T08:14:29.129Z,1020.23
2017-04-23T08:15:09.715Z,1020.21